DLH095 EDDC-EKCH
Flight info
| Callsign | DLH095 |
|---|---|
| Flight time | 0h 56m |
| Altitude | 38000 |
| Route | OSKAN7W OSKAN M748 ERNUD M726 ROSOK Q296 MONAK |
| Aircraft | A320/M-SDE3FGHIRWY/LB1 |
Departure
| Time | 2026-04-25 15:05 |
|---|---|
| Airport | Dresden Airport (EDDC) |
Arrival
| Time | 2026-04-25 16:01 |
|---|---|
| Airport | Copenhagen Kastrup Airport (EKCH) |
| Time | Latitude | Longitude | Altitude | Speed | Heading |
|---|---|---|---|---|---|
| 2026-04-25 14:45 | 51.13039 | 13.76858 | 711 ft | 0 kts | 131° |
| 2026-04-25 14:50 | 51.13040 | 13.76858 | 711 ft | 0 kts | 131° |
| 2026-04-25 14:57 | 51.13038 | 13.76860 | 711 ft | 2 kts | 131° |
| 2026-04-25 14:57 | 51.13030 | 13.76901 | 712 ft | 4 kts | 84° |
| 2026-04-25 14:57 | 51.13045 | 13.76935 | 714 ft | 7 kts | 49° |
| 2026-04-25 14:58 | 51.13091 | 13.77002 | 716 ft | 8 kts | 41° |
| 2026-04-25 14:58 | 51.13133 | 13.77060 | 714 ft | 8 kts | 41° |
| 2026-04-25 14:58 | 51.13174 | 13.77086 | 711 ft | 6 kts | 350° |
| 2026-04-25 14:58 | 51.13210 | 13.77035 | 713 ft | 10 kts | 313° |
| 2026-04-25 14:59 | 51.13268 | 13.77052 | 711 ft | 9 kts | 29° |
| 2026-04-25 14:59 | 51.13313 | 13.77110 | 716 ft | 10 kts | 40° |
| 2026-04-25 14:59 | 51.13393 | 13.77220 | 713 ft | 16 kts | 41° |
| 2026-04-25 14:59 | 51.13474 | 13.77332 | 712 ft | 15 kts | 41° |
| 2026-04-25 15:00 | 51.13553 | 13.77440 | 713 ft | 19 kts | 41° |
| 2026-04-25 15:00 | 51.13678 | 13.77611 | 712 ft | 25 kts | 40° |
| 2026-04-25 15:00 | 51.13812 | 13.77797 | 713 ft | 26 kts | 40° |
| 2026-04-25 15:00 | 51.13956 | 13.77993 | 716 ft | 28 kts | 41° |
| 2026-04-25 15:01 | 51.14096 | 13.78188 | 714 ft | 19 kts | 40° |
| 2026-04-25 15:01 | 51.14156 | 13.78270 | 712 ft | 8 kts | 40° |
| 2026-04-25 15:01 | 51.14194 | 13.78322 | 715 ft | 5 kts | 40° |
| 2026-04-25 15:01 | 51.14216 | 13.78350 | 714 ft | 4 kts | 36° |
| 2026-04-25 15:02 | 51.14241 | 13.78364 | 714 ft | 6 kts | 9° |
| 2026-04-25 15:02 | 51.14274 | 13.78345 | 713 ft | 6 kts | 321° |
| 2026-04-25 15:02 | 51.14314 | 13.78275 | 712 ft | 10 kts | 311° |
| 2026-04-25 15:02 | 51.14361 | 13.78188 | 716 ft | 8 kts | 310° |
| 2026-04-25 15:03 | 51.14375 | 13.78106 | 713 ft | 8 kts | 255° |
| 2026-04-25 15:03 | 51.14359 | 13.78071 | 717 ft | 0 kts | 223° |
| 2026-04-25 15:04 | 51.14354 | 13.78065 | 717 ft | 10 kts | 223° |
| 2026-04-25 15:04 | 51.14086 | 13.77694 | 715 ft | 88 kts | 221° |
| 2026-04-25 15:04 | 51.13467 | 13.76837 | 714 ft | 145 kts | 224° |
| 2026-04-25 15:05 | 51.12711 | 13.75649 | 1232 ft | 154 kts | 228° |
| 2026-04-25 15:05 | 51.11901 | 13.74489 | 1945 ft | 161 kts | 227° |
| 2026-04-25 15:05 | 51.10993 | 13.73263 | 2320 ft | 184 kts | 225° |
| 2026-04-25 15:06 | 51.09189 | 13.69729 | 3092 ft | 231 kts | 264° |
| 2026-04-25 15:06 | 51.09507 | 13.67204 | 3808 ft | 242 kts | 300° |
| 2026-04-25 15:06 | 51.10559 | 13.65105 | 4899 ft | 242 kts | 313° |
| 2026-04-25 15:06 | 51.11897 | 13.63469 | 5957 ft | 249 kts | 332° |
| 2026-04-25 15:07 | 51.13588 | 13.62668 | 6889 ft | 259 kts | 346° |
| 2026-04-25 15:07 | 51.15389 | 13.62506 | 7803 ft | 268 kts | 359° |
| 2026-04-25 15:07 | 51.17262 | 13.62848 | 8729 ft | 272 kts | 1° |
| 2026-04-25 15:07 | 51.19152 | 13.63168 | 9651 ft | 274 kts | 358° |
| 2026-04-25 15:08 | 51.21069 | 13.63142 | 10376 ft | 283 kts | 353° |
| 2026-04-25 15:08 | 51.23119 | 13.63071 | 10683 ft | 307 kts | 354° |
| 2026-04-25 15:08 | 51.25064 | 13.63019 | 11030 ft | 323 kts | 354° |
| 2026-04-25 15:08 | 51.27346 | 13.62980 | 11729 ft | 331 kts | 354° |
| 2026-04-25 15:09 | 51.29674 | 13.62955 | 12494 ft | 336 kts | 354° |
| 2026-04-25 15:09 | 51.31998 | 13.62931 | 13260 ft | 340 kts | 354° |
| 2026-04-25 15:09 | 51.36788 | 13.62881 | 14689 ft | 348 kts | 354° |
| 2026-04-25 15:10 | 51.39225 | 13.62857 | 15392 ft | 351 kts | 354° |
| 2026-04-25 15:10 | 51.41686 | 13.62827 | 16088 ft | 354 kts | 353° |
| 2026-04-25 15:10 | 51.46411 | 13.61190 | 17440 ft | 347 kts | 330° |
| 2026-04-25 15:11 | 51.48466 | 13.59282 | 18109 ft | 345 kts | 320° |
| 2026-04-25 15:11 | 51.50308 | 13.56793 | 18715 ft | 346 kts | 315° |
| 2026-04-25 15:11 | 51.52224 | 13.54433 | 19274 ft | 353 kts | 327° |
| 2026-04-25 15:12 | 51.57052 | 13.52217 | 20420 ft | 366 kts | 343° |
| 2026-04-25 15:12 | 51.59558 | 13.51392 | 21005 ft | 369 kts | 343° |
| 2026-04-25 15:12 | 51.62091 | 13.50571 | 21582 ft | 371 kts | 343° |
| 2026-04-25 15:12 | 51.62912 | 13.50306 | 21764 ft | 372 kts | 343° |
| 2026-04-25 15:13 | 51.67192 | 13.48920 | 22673 ft | 376 kts | 343° |
| 2026-04-25 15:13 | 51.72324 | 13.47223 | 23700 ft | 381 kts | 343° |
| 2026-04-25 15:13 | 51.74937 | 13.46351 | 24142 ft | 383 kts | 343° |
| 2026-04-25 15:14 | 51.77568 | 13.45473 | 24591 ft | 385 kts | 343° |
| 2026-04-25 15:14 | 51.80200 | 13.44595 | 25039 ft | 387 kts | 343° |
| 2026-04-25 15:14 | 51.82815 | 13.43722 | 25464 ft | 389 kts | 343° |
| 2026-04-25 15:14 | 51.85473 | 13.42831 | 25880 ft | 391 kts | 343° |
| 2026-04-25 15:15 | 51.88149 | 13.41937 | 26295 ft | 393 kts | 343° |
| 2026-04-25 15:15 | 51.90834 | 13.41042 | 26713 ft | 395 kts | 343° |
| 2026-04-25 15:15 | 51.93544 | 13.40129 | 27120 ft | 397 kts | 343° |
| 2026-04-25 15:15 | 51.96259 | 13.39205 | 27524 ft | 399 kts | 343° |
| 2026-04-25 15:16 | 51.98987 | 13.38272 | 27918 ft | 402 kts | 343° |
| 2026-04-25 15:16 | 52.01698 | 13.37346 | 28306 ft | 404 kts | 343° |
| 2026-04-25 15:16 | 52.07238 | 13.35476 | 29048 ft | 408 kts | 344° |
| 2026-04-25 15:17 | 52.12834 | 13.33607 | 29736 ft | 412 kts | 344° |
| 2026-04-25 15:17 | 52.15656 | 13.32663 | 30061 ft | 414 kts | 344° |
| 2026-04-25 15:17 | 52.18446 | 13.31719 | 30346 ft | 416 kts | 344° |
| 2026-04-25 15:18 | 52.21288 | 13.30753 | 30649 ft | 417 kts | 344° |
| 2026-04-25 15:18 | 52.26984 | 13.28798 | 31383 ft | 416 kts | 344° |
| 2026-04-25 15:18 | 52.29807 | 13.27826 | 31808 ft | 414 kts | 344° |
| 2026-04-25 15:19 | 52.32628 | 13.26857 | 32224 ft | 413 kts | 343° |
| 2026-04-25 15:19 | 52.33542 | 13.26542 | 32370 ft | 412 kts | 344° |
| 2026-04-25 15:19 | 52.38238 | 13.24930 | 33057 ft | 410 kts | 344° |
| 2026-04-25 15:19 | 52.41020 | 13.23977 | 33526 ft | 406 kts | 344° |
| 2026-04-25 15:20 | 52.43738 | 13.23047 | 34102 ft | 401 kts | 343° |
| 2026-04-25 15:20 | 52.46461 | 13.22116 | 34504 ft | 399 kts | 343° |
| 2026-04-25 15:20 | 52.49177 | 13.21190 | 34821 ft | 398 kts | 343° |
| 2026-04-25 15:20 | 52.51900 | 13.20256 | 35097 ft | 399 kts | 343° |
| 2026-04-25 15:21 | 52.54620 | 13.19313 | 35377 ft | 399 kts | 343° |
| 2026-04-25 15:21 | 52.57298 | 13.18379 | 35650 ft | 399 kts | 343° |
| 2026-04-25 15:21 | 52.60022 | 13.17431 | 35916 ft | 399 kts | 343° |
| 2026-04-25 15:21 | 52.62747 | 13.16485 | 36175 ft | 399 kts | 343° |
| 2026-04-25 15:22 | 52.65469 | 13.15542 | 36436 ft | 399 kts | 343° |
| 2026-04-25 15:22 | 52.68160 | 13.14607 | 36681 ft | 399 kts | 343° |
| 2026-04-25 15:22 | 52.70878 | 13.13660 | 36927 ft | 399 kts | 343° |
| 2026-04-25 15:22 | 52.73597 | 13.12708 | 37170 ft | 399 kts | 343° |
| 2026-04-25 15:23 | 52.76317 | 13.11752 | 37420 ft | 399 kts | 343° |
| 2026-04-25 15:23 | 52.79038 | 13.10799 | 37665 ft | 399 kts | 343° |
| 2026-04-25 15:23 | 52.81757 | 13.09846 | 37884 ft | 400 kts | 343° |
| 2026-04-25 15:23 | 52.84488 | 13.08887 | 37947 ft | 400 kts | 342° |
| 2026-04-25 15:24 | 52.89917 | 13.06977 | 37947 ft | 398 kts | 342° |
| 2026-04-25 15:24 | 52.93505 | 13.05715 | 37947 ft | 397 kts | 342° |
| 2026-04-25 15:25 | 53.00698 | 13.03188 | 37944 ft | 396 kts | 342° |
| 2026-04-25 15:25 | 53.06086 | 13.01277 | 37951 ft | 395 kts | 342° |
| 2026-04-25 15:26 | 53.11461 | 12.99373 | 37957 ft | 395 kts | 342° |
| 2026-04-25 15:26 | 53.16795 | 12.97485 | 37962 ft | 394 kts | 342° |
| 2026-04-25 15:27 | 53.22165 | 12.95573 | 37964 ft | 394 kts | 342° |
| 2026-04-25 15:28 | 53.30202 | 12.92696 | 37982 ft | 393 kts | 342° |
| 2026-04-25 15:28 | 53.35509 | 12.90787 | 37972 ft | 392 kts | 342° |
| 2026-04-25 15:29 | 53.40831 | 12.88865 | 37973 ft | 391 kts | 342° |
| 2026-04-25 15:29 | 53.46147 | 12.86953 | 37977 ft | 390 kts | 342° |
| 2026-04-25 15:30 | 53.50557 | 12.85358 | 37973 ft | 389 kts | 342° |
| 2026-04-25 15:30 | 53.56712 | 12.83132 | 37972 ft | 388 kts | 342° |
| 2026-04-25 15:31 | 53.61984 | 12.81220 | 37967 ft | 387 kts | 342° |
| 2026-04-25 15:31 | 53.67247 | 12.79297 | 37971 ft | 386 kts | 342° |
| 2026-04-25 15:32 | 53.72473 | 12.77386 | 37973 ft | 386 kts | 341° |
| 2026-04-25 15:32 | 53.77726 | 12.75458 | 37976 ft | 385 kts | 341° |
| 2026-04-25 15:33 | 53.85608 | 12.72563 | 37501 ft | 387 kts | 341° |
| 2026-04-25 15:33 | 53.88222 | 12.71602 | 37023 ft | 378 kts | 341° |
| 2026-04-25 15:33 | 53.90753 | 12.70676 | 36400 ft | 376 kts | 341° |
| 2026-04-25 15:34 | 53.93316 | 12.69736 | 35731 ft | 376 kts | 341° |
| 2026-04-25 15:34 | 53.95873 | 12.68794 | 35026 ft | 375 kts | 340° |
| 2026-04-25 15:34 | 53.98433 | 12.67840 | 34295 ft | 377 kts | 340° |
| 2026-04-25 15:34 | 53.99263 | 12.67530 | 34068 ft | 377 kts | 340° |
| 2026-04-25 15:35 | 54.06061 | 12.64989 | 31906 ft | 377 kts | 340° |
| 2026-04-25 15:35 | 54.08641 | 12.64024 | 31144 ft | 378 kts | 340° |
| 2026-04-25 15:35 | 54.11199 | 12.63075 | 30676 ft | 374 kts | 340° |
| 2026-04-25 15:36 | 54.16246 | 12.61212 | 29543 ft | 367 kts | 339° |
| 2026-04-25 15:36 | 54.18733 | 12.60289 | 29012 ft | 364 kts | 339° |
| 2026-04-25 15:36 | 54.21191 | 12.59371 | 28490 ft | 360 kts | 339° |
| 2026-04-25 15:37 | 54.23622 | 12.58462 | 27978 ft | 356 kts | 339° |
| 2026-04-25 15:37 | 54.26034 | 12.57556 | 27477 ft | 353 kts | 339° |
| 2026-04-25 15:37 | 54.28395 | 12.56665 | 26981 ft | 350 kts | 339° |
| 2026-04-25 15:37 | 54.30767 | 12.55771 | 26489 ft | 347 kts | 339° |
| 2026-04-25 15:38 | 54.33117 | 12.54890 | 26007 ft | 343 kts | 338° |
| 2026-04-25 15:38 | 54.35399 | 12.54043 | 25843 ft | 325 kts | 338° |
| 2026-04-25 15:38 | 54.37562 | 12.53247 | 25618 ft | 310 kts | 338° |
| 2026-04-25 15:38 | 54.39645 | 12.52469 | 25126 ft | 304 kts | 337° |
| 2026-04-25 15:39 | 54.41695 | 12.51688 | 24621 ft | 299 kts | 337° |
| 2026-04-25 15:39 | 54.43688 | 12.50921 | 24090 ft | 296 kts | 336° |
| 2026-04-25 15:39 | 54.45688 | 12.50153 | 23568 ft | 293 kts | 336° |
| 2026-04-25 15:39 | 54.47681 | 12.49388 | 23052 ft | 292 kts | 336° |
| 2026-04-25 15:40 | 54.49665 | 12.48628 | 22665 ft | 290 kts | 336° |
| 2026-04-25 15:40 | 54.50329 | 12.48374 | 22542 ft | 290 kts | 336° |
| 2026-04-25 15:40 | 54.53586 | 12.47129 | 21948 ft | 287 kts | 336° |
| 2026-04-25 15:40 | 54.54877 | 12.46636 | 21715 ft | 286 kts | 337° |
| 2026-04-25 15:41 | 54.57442 | 12.45662 | 21249 ft | 283 kts | 337° |
| 2026-04-25 15:41 | 54.59368 | 12.44928 | 20896 ft | 282 kts | 337° |
| 2026-04-25 15:41 | 54.61272 | 12.44199 | 20556 ft | 280 kts | 336° |
| 2026-04-25 15:41 | 54.62535 | 12.43715 | 20325 ft | 279 kts | 337° |
| 2026-04-25 15:42 | 54.64425 | 12.42991 | 19968 ft | 277 kts | 337° |
| 2026-04-25 15:42 | 54.66303 | 12.42271 | 19619 ft | 275 kts | 337° |
| 2026-04-25 15:42 | 54.68171 | 12.41555 | 19256 ft | 274 kts | 337° |
| 2026-04-25 15:42 | 54.70030 | 12.40843 | 18895 ft | 272 kts | 337° |
| 2026-04-25 15:43 | 54.71878 | 12.40138 | 18530 ft | 271 kts | 337° |
| 2026-04-25 15:43 | 54.73714 | 12.39434 | 18166 ft | 269 kts | 337° |
| 2026-04-25 15:43 | 54.75538 | 12.38732 | 17757 ft | 268 kts | 337° |
| 2026-04-25 15:43 | 54.77349 | 12.38032 | 17400 ft | 266 kts | 337° |
| 2026-04-25 15:44 | 54.79148 | 12.37334 | 17040 ft | 265 kts | 337° |
| 2026-04-25 15:44 | 54.80942 | 12.36638 | 16679 ft | 264 kts | 337° |
| 2026-04-25 15:44 | 54.82738 | 12.35943 | 16316 ft | 267 kts | 337° |
| 2026-04-25 15:44 | 54.84607 | 12.35195 | 15942 ft | 291 kts | 337° |
| 2026-04-25 15:45 | 54.86614 | 12.34396 | 15537 ft | 299 kts | 338° |
| 2026-04-25 15:45 | 54.88648 | 12.33610 | 15133 ft | 299 kts | 338° |
| 2026-04-25 15:45 | 54.90682 | 12.32835 | 14732 ft | 299 kts | 338° |
| 2026-04-25 15:45 | 54.92043 | 12.32394 | 14450 ft | 303 kts | 343° |
| 2026-04-25 15:46 | 54.94938 | 12.32728 | 13782 ft | 324 kts | 3° |
| 2026-04-25 15:46 | 54.97082 | 12.34289 | 13184 ft | 345 kts | 20° |
| 2026-04-25 15:46 | 54.99082 | 12.36582 | 12614 ft | 345 kts | 20° |
| 2026-04-25 15:46 | 55.01199 | 12.38341 | 12071 ft | 330 kts | 8° |
| 2026-04-25 15:47 | 55.03370 | 12.39410 | 11598 ft | 321 kts | 4° |
| 2026-04-25 15:47 | 55.05526 | 12.40395 | 11115 ft | 318 kts | 4° |
| 2026-04-25 15:47 | 55.07664 | 12.41377 | 10627 ft | 316 kts | 5° |
| 2026-04-25 15:47 | 55.09777 | 12.42356 | 10285 ft | 309 kts | 5° |
| 2026-04-25 15:48 | 55.11783 | 12.43300 | 10165 ft | 296 kts | 5° |
| 2026-04-25 15:48 | 55.13730 | 12.44219 | 10036 ft | 284 kts | 4° |
| 2026-04-25 15:48 | 55.15605 | 12.45099 | 9895 ft | 273 kts | 4° |
| 2026-04-25 15:48 | 55.17421 | 12.45942 | 9684 ft | 267 kts | 4° |
| 2026-04-25 15:49 | 55.19214 | 12.46767 | 9455 ft | 266 kts | 4° |
| 2026-04-25 15:49 | 55.21001 | 12.47586 | 9091 ft | 264 kts | 4° |
| 2026-04-25 15:49 | 55.22768 | 12.48519 | 8726 ft | 268 kts | 12° |
| 2026-04-25 15:49 | 55.24483 | 12.49799 | 8432 ft | 268 kts | 13° |
| 2026-04-25 15:50 | 55.26199 | 12.51084 | 8128 ft | 266 kts | 13° |
| 2026-04-25 15:50 | 55.27900 | 12.52361 | 7818 ft | 265 kts | 14° |
| 2026-04-25 15:50 | 55.29571 | 12.53616 | 7520 ft | 263 kts | 14° |
| 2026-04-25 15:50 | 55.31253 | 12.54876 | 7219 ft | 262 kts | 14° |
| 2026-04-25 15:51 | 55.32932 | 12.56136 | 6912 ft | 261 kts | 15° |
| 2026-04-25 15:51 | 55.34056 | 12.56985 | 6712 ft | 260 kts | 15° |
| 2026-04-25 15:51 | 55.36090 | 12.59326 | 6305 ft | 272 kts | 37° |
| 2026-04-25 15:51 | 55.37211 | 12.62071 | 6015 ft | 282 kts | 57° |
| 2026-04-25 15:52 | 55.37846 | 12.65392 | 5794 ft | 290 kts | 69° |
| 2026-04-25 15:52 | 55.38372 | 12.68812 | 5468 ft | 288 kts | 69° |
| 2026-04-25 15:52 | 55.38892 | 12.72210 | 5145 ft | 287 kts | 69° |
| 2026-04-25 15:52 | 55.39409 | 12.75592 | 4808 ft | 286 kts | 69° |
| 2026-04-25 15:53 | 55.39925 | 12.78974 | 4477 ft | 285 kts | 68° |
| 2026-04-25 15:53 | 55.40440 | 12.82334 | 4193 ft | 280 kts | 68° |
| 2026-04-25 15:53 | 55.40932 | 12.85566 | 4061 ft | 268 kts | 68° |
| 2026-04-25 15:53 | 55.41532 | 12.88549 | 3901 ft | 250 kts | 53° |
| 2026-04-25 15:54 | 55.42518 | 12.90925 | 3712 ft | 233 kts | 35° |
| 2026-04-25 15:54 | 55.43751 | 12.92623 | 3585 ft | 224 kts | 23° |
| 2026-04-25 15:54 | 55.45067 | 12.94119 | 3454 ft | 225 kts | 24° |
| 2026-04-25 15:54 | 55.46380 | 12.95626 | 3334 ft | 225 kts | 24° |
| 2026-04-25 15:55 | 55.47727 | 12.96959 | 3192 ft | 219 kts | 8° |
| 2026-04-25 15:55 | 55.49189 | 12.97062 | 3091 ft | 203 kts | 339° |
| 2026-04-25 15:55 | 55.50368 | 12.95972 | 3006 ft | 186 kts | 315° |
| 2026-04-25 15:55 | 55.51115 | 12.94242 | 2990 ft | 172 kts | 304° |
| 2026-04-25 15:56 | 55.51750 | 12.92549 | 2997 ft | 161 kts | 304° |
| 2026-04-25 15:56 | 55.52358 | 12.90927 | 2996 ft | 157 kts | 304° |
| 2026-04-25 15:56 | 55.52932 | 12.89396 | 2996 ft | 140 kts | 304° |
| 2026-04-25 15:56 | 55.53444 | 12.88025 | 2895 ft | 128 kts | 304° |
| 2026-04-25 15:57 | 55.53923 | 12.86745 | 2762 ft | 122 kts | 304° |
| 2026-04-25 15:57 | 55.54381 | 12.85520 | 2620 ft | 120 kts | 303° |
| 2026-04-25 15:57 | 55.54837 | 12.84300 | 2466 ft | 119 kts | 303° |
| 2026-04-25 15:57 | 55.55291 | 12.83082 | 2299 ft | 118 kts | 303° |
| 2026-04-25 15:58 | 55.55741 | 12.81877 | 2142 ft | 117 kts | 303° |
| 2026-04-25 15:58 | 55.56177 | 12.80707 | 1980 ft | 117 kts | 303° |
| 2026-04-25 15:58 | 55.56470 | 12.79920 | 1877 ft | 117 kts | 303° |
| 2026-04-25 15:58 | 55.56919 | 12.78715 | 1718 ft | 117 kts | 303° |
| 2026-04-25 15:59 | 55.57368 | 12.77511 | 1545 ft | 117 kts | 303° |
| 2026-04-25 15:59 | 55.57814 | 12.76313 | 1392 ft | 116 kts | 302° |
| 2026-04-25 15:59 | 55.58239 | 12.75168 | 1239 ft | 116 kts | 303° |
| 2026-04-25 15:59 | 55.58687 | 12.73965 | 1073 ft | 117 kts | 303° |
| 2026-04-25 16:00 | 55.59132 | 12.72767 | 886 ft | 116 kts | 303° |
| 2026-04-25 16:00 | 55.59278 | 12.72375 | 837 ft | 118 kts | 303° |
| 2026-04-25 16:00 | 55.60038 | 12.70327 | 548 ft | 120 kts | 302° |
| 2026-04-25 16:00 | 55.60490 | 12.69110 | 381 ft | 122 kts | 302° |
| 2026-04-25 16:01 | 55.60955 | 12.67860 | 211 ft | 121 kts | 303° |
| 2026-04-25 16:01 | 55.61415 | 12.66621 | 52 ft | 119 kts | 303° |
| 2026-04-25 16:01 | 55.61828 | 12.65513 | 24 ft | 88 kts | 303° |
| 2026-04-25 16:01 | 55.62061 | 12.64876 | 25 ft | 32 kts | 302° |
| 2026-04-25 16:02 | 55.62128 | 12.64722 | 24 ft | 9 kts | 328° |
| 2026-04-25 16:02 | 55.62184 | 12.64736 | 26 ft | 9 kts | 32° |
| 2026-04-25 16:02 | 55.62205 | 12.64763 | 24 ft | 3 kts | 34° |
| 2026-04-25 16:02 | 55.62223 | 12.64783 | 25 ft | 2 kts | 33° |
| 2026-04-25 16:03 | 55.62223 | 12.64784 | 25 ft | 0 kts | 33° |
| 2026-04-25 16:03 | 55.62227 | 12.64788 | 25 ft | 4 kts | 34° |
| 2026-04-25 16:04 | 55.62256 | 12.64826 | 25 ft | 5 kts | 33° |
| 2026-04-25 16:04 | 55.62287 | 12.64808 | 27 ft | 8 kts | 313° |
| 2026-04-25 16:04 | 55.62337 | 12.64675 | 26 ft | 15 kts | 303° |
| 2026-04-25 16:04 | 55.62391 | 12.64528 | 24 ft | 10 kts | 303° |
| 2026-04-25 16:05 | 55.62434 | 12.64423 | 24 ft | 11 kts | 308° |
| 2026-04-25 16:05 | 55.62483 | 12.64313 | 25 ft | 12 kts | 308° |
| 2026-04-25 16:05 | 55.62584 | 12.64044 | 24 ft | 13 kts | 303° |
| 2026-04-25 16:06 | 55.62632 | 12.63916 | 24 ft | 9 kts | 303° |
| 2026-04-25 16:06 | 55.62675 | 12.63853 | 24 ft | 9 kts | 0° |
| 2026-04-25 16:06 | 55.62698 | 12.63934 | 24 ft | 8 kts | 112° |
| 2026-04-25 16:06 | 55.62714 | 12.64004 | 25 ft | 6 kts | 36° |
| 2026-04-25 16:07 | 55.62735 | 12.64029 | 24 ft | 2 kts | 33° |
| 2026-04-25 16:07 | 55.62738 | 12.64033 | 24 ft | 2 kts | 33° |
| 2026-04-25 16:07 | 55.62746 | 12.64042 | 24 ft | 0 kts | 33° |
| 2026-04-25 16:07 | 55.62746 | 12.64041 | 24 ft | 0 kts | 33° |